Time;durP1;ratioP1;P1;durP2;ratioP2;P2;SDS_P1;SDS_P2;PMS_P1;PMS_P2;Temp;Humidity;BMP_temperature;BMP_pressure;BME280_temperature;BME280_humidity;BME280_pressure;Samples;Min_cycle;Max_cycle;Signal;HPM_P1;HPM_P2
2022/10/23 00:03:31;;;;;;;29.80;18.70;;;;;;;12.73;87.12;98767.36;421754;1296;109373;-40
2022/10/23 00:13:36;;;;;;;28.10;19.50;;;;;;;12.71;87.11;98786.44;421541;1295;109351;-40
2022/10/23 00:23:40;;;;;;;24.50;17.20;;;;;;;12.70;87.17;98787.70;421706;1301;97768;-40
2022/10/23 00:33:45;;;;;;;24.40;17.80;;;;;;;12.68;87.19;98785.01;421849;1298;106224;-40
2022/10/23 00:43:58;;;;;;;28.80;18.40;;;;;;;12.58;86.94;98784.83;421755;1289;97487;-41
2022/10/23 00:54:02;;;;;;;21.30;16.40;;;;;;;12.38;86.86;98786.05;421761;1296;111143;-40
2022/10/23 01:04:28;;;;;;;27.10;19.10;;;;;;;12.16;86.87;98783.70;421776;1292;107448;-38
2022/10/23 01:14:36;;;;;;;32.30;20.20;;;;;;;11.97;86.77;98795.87;421812;1263;98024;-40
2022/10/23 01:24:42;;;;;;;19.80;15.10;;;;;;;11.84;86.88;98795.23;421907;1298;108011;-40
2022/10/23 01:34:48;;;;;;;26.40;16.90;;;;;;;11.81;87.00;98797.48;422065;1287;97585;-39
2022/10/23 01:44:51;;;;;;;27.70;20.20;;;;;;;11.76;87.06;98801.06;421599;1298;110530;-39
2022/10/23 01:54:59;;;;;;;24.20;17.10;;;;;;;11.74;86.93;98805.90;421464;1298;376934;-40
2022/10/23 02:05:05;;;;;;;24.40;15.70;;;;;;;11.67;87.00;98804.13;421852;1295;97899;-38
2022/10/23 02:15:14;;;;;;;27.00;19.20;;;;;;;11.66;87.06;98801.66;421670;1296;108201;-40
2022/10/23 02:25:24;;;;;;;24.60;15.40;;;;;;;11.60;87.18;98812.12;421145;1297;97911;-40
2022/10/23 02:35:28;;;;;;;21.10;15.10;;;;;;;11.65;87.16;98811.98;421625;1289;109759;-39
2022/10/23 02:45:35;;;;;;;25.50;16.70;;;;;;;11.68;87.16;98818.24;421518;1288;107507;-39
2022/10/23 02:55:44;;;;;;;25.90;18.60;;;;;;;11.69;87.22;98825.04;421794;1295;96663;-39
2022/10/23 03:05:48;;;;;;;24.90;16.60;;;;;;;11.69;87.22;98842.64;421707;1289;107786;-40
2022/10/23 03:15:51;;;;;;;29.20;17.40;;;;;;;11.65;87.17;98846.99;421516;1298;97903;-40
2022/10/23 03:35:58;;;;;;;26.50;17.60;;;;;;;11.49;87.11;98858.70;421612;1298;108342;-40
2022/10/23 03:46:02;;;;;;;26.10;19.40;;;;;;;11.41;86.94;98858.94;422085;1298;97911;-39
2022/10/23 03:56:06;;;;;;;30.30;20.70;;;;;;;11.27;87.02;98855.16;421966;1298;109650;-41
2022/10/23 04:06:10;;;;;;;32.80;22.50;;;;;;;11.16;86.89;98851.65;421727;1298;97495;-41
2022/10/23 04:16:13;;;;;;;31.40;19.40;;;;;;;11.06;87.05;98858.57;421694;1288;109686;-40
2022/10/23 04:26:17;;;;;;;24.40;18.10;;;;;;;11.02;87.19;98852.58;421668;1298;110000;-40
2022/10/23 04:36:20;;;;;;;28.80;17.90;;;;;;;10.99;87.25;98837.77;421763;1289;97711;-40
2022/10/23 04:46:25;;;;;;;27.20;18.30;;;;;;;10.98;87.31;98846.30;421988;1295;108619;-40
2022/10/23 04:56:28;;;;;;;24.40;17.30;;;;;;;11.01;87.50;98850.45;421780;1298;97187;-41
2022/10/23 05:06:32;;;;;;;26.90;18.00;;;;;;;11.05;87.63;98855.63;421734;1298;110627;-40
2022/10/23 05:16:35;;;;;;;29.20;18.00;;;;;;;11.14;87.72;98858.92;421634;1288;109142;-40
2022/10/23 05:26:39;;;;;;;26.50;16.30;;;;;;;11.21;87.70;98862.06;421730;1296;97356;-41
2022/10/23 05:36:43;;;;;;;25.30;18.20;;;;;;;11.29;87.67;98871.94;421826;1297;108511;-40
2022/10/23 05:46:47;;;;;;;26.70;18.10;;;;;;;11.34;87.67;98874.77;421587;1298;97882;-39
2022/10/23 05:56:51;;;;;;;23.80;17.90;;;;;;;11.36;87.49;98876.24;421585;1295;110675;-40
2022/10/23 06:06:55;;;;;;;24.00;17.50;;;;;;;11.36;87.55;98880.06;421650;1298;109424;-40
2022/10/23 06:16:59;;;;;;;29.70;19.30;;;;;;;11.49;87.59;98891.74;421752;1287;96647;-40
2022/10/23 06:27:04;;;;;;;26.60;16.70;;;;;;;11.57;87.44;98914.80;421784;1295;107806;-40
2022/10/23 06:37:07;;;;;;;20.80;15.00;;;;;;;11.60;87.31;98920.25;421628;1298;96724;-40
2022/10/23 06:57:15;;;;;;;22.30;14.50;;;;;;;11.63;87.15;98918.63;421368;1290;108293;-40
2022/10/23 07:07:18;;;;;;;23.20;14.90;;;;;;;11.74;87.17;98920.63;421252;1289;97500;-41
2022/10/23 07:17:21;;;;;;;21.90;15.30;;;;;;;11.97;87.08;98925.03;421362;1289;108151;-40
2022/10/23 07:27:25;;;;;;;27.20;16.00;;;;;;;12.17;86.99;98916.02;421667;1289;97793;-40
2022/10/23 07:37:29;;;;;;;24.40;15.90;;;;;;;12.40;86.96;98894.94;421687;1298;110299;-41
2022/10/23 07:47:33;;;;;;;20.50;14.70;;;;;;;13.05;87.52;98916.17;421817;1298;97876;-40
2022/10/23 07:57:38;;;;;;;21.10;12.20;;;;;;;14.53;87.59;98918.13;421659;1295;97893;-39
2022/10/23 08:07:42;;;;;;;18.70;13.80;;;;;;;14.90;85.70;98918.70;421414;1296;110387;-40
2022/10/23 08:17:45;;;;;;;18.50;12.90;;;;;;;14.83;85.12;98914.09;421709;1286;107855;-40
2022/10/23 08:27:49;;;;;;;17.80;12.30;;;;;;;14.85;84.81;98912.14;421327;1282;98033;-41
2022/10/23 08:37:54;;;;;;;13.80;10.10;;;;;;;15.00;84.32;98911.45;420713;1298;109982;-42
2022/10/23 08:48:02;;;;;;;14.00;9.90;;;;;;;15.32;84.14;98910.80;420665;1297;108043;-40
2022/10/23 08:58:14;;;;;;;19.70;9.60;;;;;;;15.79;83.82;98916.69;420912;1291;97867;-40
2022/10/23 09:08:21;;;;;;;10.60;8.50;;;;;;;15.56;82.65;98927.42;421029;1297;110389;-41
2022/10/23 09:18:25;;;;;;;13.20;8.20;;;;;;;15.50;82.62;98930.25;420769;1297;106514;-41
2022/10/23 09:28:32;;;;;;;11.30;9.40;;;;;;;15.70;82.37;98933.63;420714;1291;96608;-40
2022/10/23 09:38:38;;;;;;;11.40;9.50;;;;;;;15.84;82.14;98935.52;421034;1291;108081;-41
2022/10/23 09:48:41;;;;;;;11.40;9.20;;;;;;;16.39;81.93;98935.70;420869;1291;106766;-41
2022/10/23 09:58:48;;;;;;;11.20;7.60;;;;;;;16.98;81.43;98939.64;420962;1298;96709;-40
2022/10/23 10:08:53;;;;;;;11.60;6.70;;;;;;;17.43;80.49;98931.52;421474;1291;96674;-40
2022/10/23 10:18:59;;;;;;;10.50;7.30;;;;;;;17.67;79.78;98936.46;420810;1298;99108;-40
2022/10/23 10:29:06;;;;;;;8.20;7.30;;;;;;;17.73;78.77;98938.71;420801;1299;108548;-40
2022/10/23 10:39:18;;;;;;;9.80;6.00;;;;;;;17.44;77.56;98933.77;420838;1294;97882;-40
2022/10/23 10:49:21;;;;;;;11.60;8.10;;;;;;;17.54;77.86;98923.83;420836;1298;110952;-41
2022/10/23 10:59:30;;;;;;;10.50;7.90;;;;;;;17.79;77.17;98913.48;421061;1298;97566;-40
2022/10/23 11:09:33;;;;;;;7.70;6.70;;;;;;;17.84;76.82;98900.73;421096;1298;97879;-41
2022/10/23 11:19:41;;;;;;;11.70;7.50;;;;;;;17.75;76.18;98893.80;420938;1295;110914;-40
2022/10/23 11:30:11;;;;;;;9.00;7.90;;;;;;;17.73;76.03;98875.16;420991;1293;107897;-41
2022/10/23 11:40:21;;;;;;;17.00;8.50;;;;;;;17.56;75.43;98875.17;421120;1298;97630;-40
2022/10/23 11:50:28;;;;;;;11.40;9.30;;;;;;;17.33;75.36;98870.74;421008;1291;109399;-41
2022/10/23 12:00:33;;;;;;;13.30;11.00;;;;;;;17.18;75.28;98854.48;420940;1295;108624;-40
2022/10/23 12:10:46;;;;;;;14.30;11.10;;;;;;;17.04;74.59;98842.08;420969;1291;97606;-40
2022/10/23 12:20:51;;;;;;;11.70;10.00;;;;;;;16.70;74.30;98829.48;421046;1295;98490;-41
2022/10/23 12:51:06;;;;;;;11.50;10.30;;;;;;;16.50;74.45;98813.88;421133;1291;111337;-41
2022/10/23 13:01:22;;;;;;;14.80;11.00;;;;;;;16.58;74.51;98801.45;421033;1298;98734;-41
2022/10/23 13:11:27;;;;;;;10.50;8.40;;;;;;;16.60;74.35;98790.20;421074;1289;97516;-41
2022/10/23 13:21:31;;;;;;;11.50;8.20;;;;;;;16.67;74.17;98789.85;421121;1299;110834;-40
2022/10/23 13:31:36;;;;;;;10.00;7.40;;;;;;;16.58;74.30;98795.21;421043;1294;107659;-41
2022/10/23 13:41:40;;;;;;;10.70;7.90;;;;;;;16.28;74.38;98797.38;420860;1302;97526;-41
2022/10/23 13:51:47;;;;;;;9.60;7.20;;;;;;;15.99;74.37;98786.88;420631;1295;495725;-41
2022/10/23 14:01:51;;;;;;;9.50;7.30;;;;;;;15.84;74.55;98769.47;420862;1294;106784;-41
2022/10/23 14:11:55;;;;;;;9.10;6.80;;;;;;;15.86;74.61;98761.07;421204;1295;97478;-40
2022/10/23 14:21:59;;;;;;;14.20;9.00;;;;;;;15.80;74.74;98760.98;421077;1297;108531;-48
2022/10/23 14:32:03;;;;;;;12.60;10.20;;;;;;;15.53;74.73;98754.11;421057;1299;97800;-41
2022/10/23 14:42:07;;;;;;;12.40;8.80;;;;;;;15.27;74.94;98756.98;420955;1292;97870;-40
2022/10/23 14:52:11;;;;;;;15.00;10.00;;;;;;;15.11;75.15;98756.45;420882;1300;107884;-41
2022/10/23 15:02:16;;;;;;;16.00;10.80;;;;;;;14.90;75.31;98761.13;420911;1293;96678;-40
2022/10/23 15:12:19;;;;;;;25.20;16.30;;;;;;;14.58;75.72;98757.50;421059;1299;111201;-40
2022/10/23 15:22:23;;;;;;;32.50;21.10;;;;;;;14.17;75.97;98753.07;421061;1292;97494;-40
2022/10/23 15:32:27;;;;;;;35.50;24.10;;;;;;;13.77;76.05;98750.91;420870;1304;96681;-41
2022/10/23 15:42:30;;;;;;;27.60;16.10;;;;;;;13.45;76.49;98754.47;420692;1299;109818;-40
2022/10/23 15:52:52;;;;;;;34.70;19.90;;;;;;;13.21;76.91;98753.38;420929;1298;108414;-39
2022/10/23 16:03:15;;;;;;;31.00;21.80;;;;;;;12.99;77.29;98752.71;421142;1289;96672;-41
2022/10/23 16:13:18;;;;;;;36.00;23.30;;;;;;;12.81;77.79;98757.84;421054;1298;106986;-41
2022/10/23 16:23:22;;;;;;;42.20;29.90;;;;;;;12.67;78.01;98757.20;421177;1292;97516;-41
2022/10/23 16:33:26;;;;;;;51.60;33.30;;;;;;;12.51;78.41;98759.15;421294;1302;110371;-41
2022/10/23 16:43:30;;;;;;;58.60;36.20;;;;;;;12.38;78.67;98763.27;420777;1299;107572;-41
2022/10/23 16:53:35;;;;;;;52.80;32.60;;;;;;;12.22;78.94;98767.41;420859;1287;97519;-41
2022/10/23 17:03:42;;;;;;;58.20;38.50;;;;;;;12.03;79.23;98765.72;420960;1298;106938;-40
2022/10/23 17:13:48;;;;;;;58.70;39.60;;;;;;;11.86;79.56;98774.39;421084;1299;97613;-40
2022/10/23 17:23:52;;;;;;;83.00;51.00;;;;;;;11.73;79.84;98777.08;420828;1298;111811;-41
2022/10/23 17:44:04;;;;;;;78.70;47.00;;;;;;;11.58;80.51;98775.95;421096;1291;96951;-41
2022/10/23 17:54:10;;;;;;;65.70;46.00;;;;;;;11.53;80.76;98772.60;421086;1295;106686;-40
2022/10/23 18:04:15;;;;;;;74.50;49.70;;;;;;;11.43;81.02;98762.56;420861;1298;97937;-40
2022/10/23 18:14:19;;;;;;;76.80;49.90;;;;;;;11.33;81.15;98757.73;420970;1295;111225;-40
2022/10/23 18:24:24;;;;;;;99.60;61.70;;;;;;;11.22;81.46;98751.61;420863;1296;107570;-40
2022/10/23 18:34:28;;;;;;;110.60;68.10;;;;;;;11.14;81.62;98755.70;420900;1290;98245;-39
2022/10/23 18:44:31;;;;;;;94.40;59.00;;;;;;;11.00;81.82;98751.95;420985;1298;108191;-39
2022/10/23 18:54:35;;;;;;;81.40;52.40;;;;;;;10.87;82.14;98749.79;420951;1298;97487;-40
2022/10/23 19:04:39;;;;;;;74.00;47.90;;;;;;;10.77;82.32;98737.48;420886;1297;111156;-40
2022/10/23 19:14:42;;;;;;;79.70;51.60;;;;;;;10.70;82.53;98724.89;420665;1302;107411;-40
2022/10/23 19:24:50;;;;;;;85.60;53.60;;;;;;;10.62;82.80;98717.02;421150;1298;97877;-40
2022/10/23 19:34:54;;;;;;;67.90;46.30;;;;;;;10.57;82.99;98717.58;420898;1298;107536;-39
2022/10/23 19:44:58;;;;;;;84.30;47.30;;;;;;;10.50;83.23;98712.76;420894;1298;96706;-43
2022/10/23 19:55:02;;;;;;;66.90;42.90;;;;;;;10.50;83.59;98705.48;421110;1292;110942;-39
2022/10/23 20:05:08;;;;;;;74.30;48.00;;;;;;;10.56;83.69;98706.67;420947;1297;107747;-40
2022/10/23 20:15:11;;;;;;;75.10;47.40;;;;;;;10.56;83.79;98703.06;421028;1291;97982;-39
2022/10/23 20:25:16;;;;;;;72.00;47.90;;;;;;;10.45;83.77;98688.59;421212;1284;108095;-39
2022/10/23 20:35:19;;;;;;;71.30;46.30;;;;;;;10.37;83.96;98671.30;421010;1298;97872;-41
2022/10/23 20:45:23;;;;;;;81.00;54.40;;;;;;;10.34;84.12;98672.11;420968;1298;110236;-41
2022/10/23 20:55:27;;;;;;;75.20;51.60;;;;;;;10.33;84.29;98682.73;421122;1297;108625;-40
2022/10/23 21:05:32;;;;;;;76.10;52.80;;;;;;;10.25;84.25;98672.66;420784;1298;96671;-40
2022/10/23 21:15:36;;;;;;;84.10;50.90;;;;;;;10.13;84.43;98655.56;420983;1298;107927;-40
2022/10/23 21:25:41;;;;;;;83.80;50.60;;;;;;;10.10;84.63;98653.86;421076;1291;97918;-39
2022/10/23 21:35:45;;;;;;;84.70;52.60;;;;;;;10.13;84.85;98661.01;420972;1298;110024;-41
2022/10/23 21:46:11;;;;;;;87.30;52.60;;;;;;;10.11;84.92;98663.76;420772;1298;108168;-40
2022/10/23 21:56:24;;;;;;;86.50;55.60;;;;;;;10.06;84.93;98647.99;420971;1289;96617;-39
2022/10/23 22:06:30;;;;;;;82.50;50.30;;;;;;;9.99;85.23;98614.17;421028;1298;107956;-41
2022/10/23 22:16:33;;;;;;;77.00;48.20;;;;;;;10.06;85.60;98610.69;420941;1291;96672;-41
2022/10/23 22:26:39;;;;;;;77.50;47.10;;;;;;;10.08;85.65;98611.01;421439;1294;110839;-40
2022/10/23 22:36:43;;;;;;;74.70;44.80;;;;;;;10.12;85.84;98597.20;420932;1298;108498;-45
2022/10/23 22:46:46;;;;;;;61.80;42.50;;;;;;;10.16;86.12;98590.68;421276;1290;97868;-40
2022/10/23 22:56:50;;;;;;;61.00;40.70;;;;;;;10.19;86.14;98602.66;421155;1298;108790;-39
2022/10/23 23:06:54;;;;;;;61.90;41.60;;;;;;;10.20;86.35;98591.67;421087;1294;98628;-40
2022/10/23 23:16:57;;;;;;;64.70;40.40;;;;;;;10.16;86.38;98575.69;421053;1298;110439;-41
2022/10/23 23:27:01;;;;;;;64.50;40.50;;;;;;;10.11;86.29;98590.92;420854;1298;109600;-41
2022/10/23 23:37:05;;;;;;;68.00;41.80;;;;;;;9.99;86.28;98576.13;420831;1291;96747;-40
2022/10/23 23:47:08;;;;;;;64.20;42.10;;;;;;;9.86;86.36;98557.79;420972;1292;108354;-40
2022/10/23 23:57:13;;;;;;;65.80;43.50;;;;;;;9.78;86.42;98555.59;420939;1291;97481;-39
